createdAt,value
2018-09-13T00:00:46.626Z,0.00
2018-09-13T00:01:46.633Z,0.00
2018-09-13T00:03:28.626Z,0.00
2018-09-13T00:04:29.006Z,0.00
2018-09-13T00:05:29.132Z,0.00
2018-09-13T00:06:29.330Z,0.00
2018-09-13T00:07:29.623Z,0.00
2018-09-13T00:08:28.777Z,0.00
2018-09-13T00:09:29.226Z,0.00
2018-09-13T00:10:29.439Z,0.00
2018-09-13T00:11:29.647Z,0.00
2018-09-13T00:12:28.835Z,0.00
2018-09-13T00:13:29.106Z,0.00
2018-09-13T00:14:29.236Z,0.00
2018-09-13T00:15:29.335Z,0.00
2018-09-13T00:16:29.753Z,0.00
2018-09-13T00:17:29.183Z,0.00
2018-09-13T00:18:29.329Z,0.00
2018-09-13T00:19:29.437Z,0.00
2018-09-13T00:20:29.717Z,0.00
2018-09-13T00:21:29.132Z,0.00
2018-09-13T00:22:29.538Z,0.00
2018-09-13T00:23:28.996Z,0.00
2018-09-13T00:24:50.763Z,0.00
2018-09-13T00:25:51.070Z,0.00
2018-09-13T00:26:51.306Z,0.00
2018-09-13T00:27:51.316Z,0.00
2018-09-13T00:29:12.747Z,0.00
2018-09-13T00:30:12.944Z,0.00
2018-09-13T00:31:13.205Z,0.00
2018-09-13T00:32:34.168Z,0.00
2018-09-13T00:33:34.256Z,0.00
2018-09-13T00:35:16.146Z,0.00
2018-09-13T00:36:16.256Z,0.00
2018-09-13T00:37:16.267Z,0.00
2018-09-13T00:38:16.530Z,0.00
2018-09-13T00:39:16.645Z,0.00
2018-09-13T00:40:16.921Z,0.00
2018-09-13T00:41:17.189Z,0.00
2018-09-13T00:42:16.381Z,0.00
2018-09-13T00:43:16.618Z,0.00
2018-09-13T00:44:37.637Z,0.00
2018-09-13T00:45:58.789Z,0.00
2018-09-13T00:47:19.930Z,0.00
2018-09-13T00:48:20.100Z,0.00
2018-09-13T00:49:20.416Z,0.00
2018-09-13T00:50:20.679Z,0.00
2018-09-13T00:51:20.909Z,0.00
2018-09-13T00:52:20.228Z,0.00
2018-09-13T00:53:43.508Z,0.00
2018-09-13T00:54:43.766Z,0.00
2018-09-13T00:55:43.884Z,0.00
2018-09-13T00:56:44.178Z,0.00
2018-09-13T00:57:44.526Z,0.00
2018-09-13T00:59:04.908Z,0.00
2018-09-13T01:00:05.216Z,0.00
2018-09-13T01:01:05.320Z,0.00
2018-09-13T01:02:05.571Z,0.00
2018-09-13T01:03:04.748Z,0.00
2018-09-13T01:04:04.880Z,0.00
2018-09-13T01:05:05.152Z,0.00
2018-09-13T01:06:05.455Z,0.00
2018-09-13T01:07:05.822Z,0.00
2018-09-13T01:08:04.966Z,0.00
2018-09-13T01:09:05.164Z,0.00
2018-09-13T01:10:05.248Z,0.00
2018-09-13T01:11:05.723Z,0.00
2018-09-13T01:12:46.552Z,0.00
2018-09-13T01:13:46.825Z,0.00
2018-09-13T01:14:47.092Z,0.00
2018-09-13T01:15:47.172Z,0.00
2018-09-13T01:16:47.339Z,0.00
2018-09-13T01:17:47.659Z,0.00
2018-09-13T01:18:46.685Z,0.00
2018-09-13T01:19:46.782Z,0.00
2018-09-13T01:20:46.869Z,0.00
2018-09-13T01:21:47.285Z,0.00
2018-09-13T01:23:29.484Z,0.00
2018-09-13T01:24:29.580Z,0.00
2018-09-13T01:25:29.939Z,0.00
2018-09-13T01:26:30.188Z,0.00
2018-09-13T01:27:29.457Z,0.00
2018-09-13T01:28:29.611Z,0.00
2018-09-13T01:29:29.647Z,0.00
2018-09-13T01:30:30.000Z,0.00
2018-09-13T01:31:30.262Z,0.00
2018-09-13T01:32:29.647Z,0.00
2018-09-13T01:33:29.911Z,0.00
2018-09-13T01:34:30.223Z,0.00
2018-09-13T01:35:29.381Z,0.00
2018-09-13T01:36:50.372Z,0.00
2018-09-13T01:37:50.650Z,0.00
2018-09-13T01:39:11.799Z,0.00
2018-09-13T01:40:11.889Z,0.00
2018-09-13T01:41:12.195Z,0.00
2018-09-13T01:42:12.298Z,0.00
2018-09-13T01:43:12.413Z,0.00
2018-09-13T01:44:12.632Z,0.00
2018-09-13T01:45:11.881Z,0.00
2018-09-13T01:46:12.071Z,0.00
2018-09-13T01:47:12.502Z,0.00
2018-09-13T01:48:11.792Z,0.00
2018-09-13T01:49:11.989Z,0.00
2018-09-13T01:50:12.254Z,0.00
2018-09-13T01:51:12.483Z,0.00
2018-09-13T01:52:11.676Z,0.00
2018-09-13T01:53:11.920Z,0.00
2018-09-13T01:54:11.937Z,0.00
2018-09-13T01:55:12.271Z,0.00
2018-09-13T01:56:12.679Z,0.00
2018-09-13T01:57:11.992Z,0.00
2018-09-13T01:58:12.210Z,0.00
2018-09-13T01:59:12.296Z,0.00
2018-09-13T02:00:12.522Z,0.00
2018-09-13T02:01:11.592Z,0.00
2018-09-13T02:02:11.506Z,0.00
2018-09-13T02:03:11.475Z,0.00
2018-09-13T02:04:11.652Z,0.00
2018-09-13T02:05:32.703Z,0.00
2018-09-13T02:06:32.986Z,0.00
2018-09-13T02:07:33.332Z,0.00
2018-09-13T02:08:33.344Z,0.00
2018-09-13T02:09:33.160Z,0.00
2018-09-13T02:10:33.138Z,0.00
2018-09-13T02:11:33.393Z,0.00
2018-09-13T02:12:33.542Z,0.00
2018-09-13T02:13:32.800Z,0.00
2018-09-13T02:14:33.014Z,0.00
2018-09-13T02:15:54.029Z,0.00
2018-09-13T02:16:54.289Z,0.00
2018-09-13T02:17:54.363Z,0.00
2018-09-13T02:18:54.654Z,0.00
2018-09-13T02:19:54.590Z,0.00
2018-09-13T02:20:54.682Z,0.00
2018-09-13T02:21:54.804Z,0.00
2018-09-13T02:22:54.911Z,0.00
2018-09-13T02:23:54.090Z,0.00
2018-09-13T02:24:54.258Z,0.00
2018-09-13T02:25:54.232Z,0.00
2018-09-13T02:26:54.398Z,0.00
2018-09-13T02:27:54.280Z,0.00
2018-09-13T02:28:54.544Z,0.00
2018-09-13T02:29:54.576Z,0.00
2018-09-13T02:30:54.714Z,0.00
2018-09-13T02:31:54.636Z,0.00
2018-09-13T02:32:54.658Z,0.00
2018-09-13T02:33:54.981Z,0.00
2018-09-13T02:34:54.788Z,0.00
2018-09-13T02:35:54.912Z,0.00
2018-09-13T02:36:54.169Z,0.00
2018-09-13T02:37:54.347Z,0.00
2018-09-13T02:38:54.472Z,0.00
2018-09-13T02:39:54.672Z,0.00
2018-09-13T02:40:54.974Z,0.00
2018-09-13T02:41:54.509Z,0.00
2018-09-13T02:42:55.045Z,0.00
2018-09-13T02:43:54.934Z,0.00
2018-09-13T02:44:54.748Z,0.00
2018-09-13T02:45:54.895Z,0.00
2018-09-13T02:46:54.110Z,0.00
2018-09-13T02:48:15.339Z,0.00
2018-09-13T02:49:15.743Z,0.00
2018-09-13T02:50:16.023Z,0.00
2018-09-13T02:51:16.413Z,0.00
2018-09-13T02:52:15.811Z,0.00
2018-09-13T02:53:15.999Z,0.00
2018-09-13T02:54:15.992Z,0.00
2018-09-13T02:55:16.225Z,0.00
2018-09-13T02:56:15.522Z,0.00
2018-09-13T02:57:15.720Z,0.00
2018-09-13T02:58:15.831Z,0.00
2018-09-13T02:59:15.845Z,0.00
2018-09-13T03:00:16.190Z,0.00
2018-09-13T03:01:15.532Z,0.00
2018-09-13T03:02:16.848Z,0.00
2018-09-13T03:03:16.177Z,0.00
2018-09-13T03:04:15.358Z,0.00
2018-09-13T03:05:15.708Z,0.00
2018-09-13T03:06:15.963Z,0.00
2018-09-13T03:07:16.644Z,0.00
2018-09-13T03:08:15.832Z,0.00
2018-09-13T03:09:37.091Z,0.00
2018-09-13T03:10:37.292Z,0.00
2018-09-13T03:11:37.346Z,0.00
2018-09-13T03:12:58.360Z,0.00
2018-09-13T03:13:58.473Z,0.00
2018-09-13T03:15:19.328Z,0.00
2018-09-13T03:16:19.585Z,0.00
2018-09-13T03:17:19.739Z,0.00
2018-09-13T03:18:20.089Z,0.00
2018-09-13T03:19:41.111Z,0.00
2018-09-13T03:20:41.152Z,0.00
2018-09-13T03:22:02.106Z,0.00
2018-09-13T03:23:02.259Z,0.00
2018-09-13T03:24:02.467Z,0.00
2018-09-13T03:25:02.828Z,0.00
2018-09-13T03:26:02.205Z,0.00
2018-09-13T03:27:02.406Z,0.00
2018-09-13T03:28:02.588Z,0.00
2018-09-13T03:29:01.973Z,0.00
2018-09-13T03:30:02.171Z,0.00
2018-09-13T03:31:02.631Z,0.00
2018-09-13T03:32:44.371Z,0.00
2018-09-13T03:33:45.692Z,0.00
2018-09-13T03:34:44.835Z,0.00
2018-09-13T03:36:05.726Z,0.00
2018-09-13T03:37:05.849Z,0.00
2018-09-13T03:38:06.279Z,0.00
2018-09-13T03:39:27.318Z,0.00
2018-09-13T03:40:27.735Z,0.00
2018-09-13T03:41:27.867Z,0.00
2018-09-13T03:42:28.030Z,0.00
2018-09-13T03:43:28.349Z,0.00
2018-09-13T03:44:27.602Z,0.00
2018-09-13T03:45:27.569Z,0.00
2018-09-13T03:46:27.707Z,0.00
2018-09-13T03:47:48.423Z,0.00
2018-09-13T03:48:48.593Z,0.00
2018-09-13T03:49:48.676Z,0.00
2018-09-13T03:51:10.128Z,0.00
2018-09-13T03:52:10.287Z,0.00
2018-09-13T03:53:10.377Z,0.00
2018-09-13T03:54:10.738Z,0.00
2018-09-13T03:55:10.953Z,0.00
2018-09-13T03:56:31.212Z,0.00
2018-09-13T03:57:31.280Z,0.00
2018-09-13T03:58:31.584Z,0.00
2018-09-13T03:59:31.855Z,0.00
2018-09-13T04:00:32.091Z,0.00
2018-09-13T04:01:31.434Z,0.00
2018-09-13T04:02:31.739Z,0.00
2018-09-13T04:03:31.983Z,0.00
2018-09-13T04:04:31.281Z,0.00
2018-09-13T04:05:31.758Z,0.00
2018-09-13T04:06:31.936Z,0.00
2018-09-13T04:07:31.015Z,0.00
2018-09-13T04:08:31.990Z,0.00
2018-09-13T04:09:31.969Z,0.00
2018-09-13T04:10:31.342Z,0.00
2018-09-13T04:11:31.740Z,0.00
2018-09-13T04:12:31.746Z,0.00
2018-09-13T04:13:32.154Z,0.00
2018-09-13T04:14:52.287Z,0.00
2018-09-13T04:15:52.270Z,0.00
2018-09-13T04:16:52.740Z,0.00
2018-09-13T04:18:14.258Z,0.00
2018-09-13T04:19:14.426Z,0.00
2018-09-13T04:20:35.404Z,1.00
2018-09-13T04:21:36.405Z,1.00
2018-09-13T04:22:56.361Z,1.00
2018-09-13T04:23:57.399Z,0.00
2018-09-13T04:24:56.698Z,1.00
2018-09-13T04:25:56.677Z,1.00
2018-09-13T04:26:57.123Z,2.00
2018-09-13T04:27:57.132Z,1.00
2018-09-13T04:28:57.287Z,2.00
2018-09-13T04:29:56.414Z,2.00
2018-09-13T04:30:56.410Z,3.00
2018-09-13T04:31:56.685Z,4.00
2018-09-13T04:32:56.835Z,4.00
2018-09-13T04:33:56.910Z,4.00
2018-09-13T04:34:59.495Z,6.00
2018-09-13T04:35:56.499Z,7.00
2018-09-13T04:36:57.054Z,8.00
2018-09-13T04:37:57.398Z,10.00
2018-09-13T04:38:57.346Z,12.00
2018-09-13T04:39:56.455Z,14.00
2018-09-13T04:40:56.776Z,16.00
2018-09-13T04:41:56.797Z,18.00
2018-09-13T04:43:39.173Z,23.00
2018-09-13T04:44:39.461Z,25.00
2018-09-13T04:45:39.566Z,28.00
2018-09-13T04:46:39.590Z,31.00
2018-09-13T04:47:39.541Z,34.00
2018-09-13T04:48:39.751Z,37.00
2018-09-13T04:49:38.979Z,41.00
2018-09-13T04:50:39.314Z,47.00
2018-09-13T04:51:39.553Z,52.00
2018-09-13T04:52:39.748Z,58.00
2018-09-13T04:53:59.657Z,65.00
2018-09-13T04:55:00.805Z,70.00
2018-09-13T04:56:00.870Z,75.00
2018-09-13T04:56:59.819Z,80.00
2018-09-13T04:57:59.910Z,85.00
2018-09-13T04:59:00.243Z,91.00
2018-09-13T05:00:00.503Z,98.00
2018-09-13T05:01:00.642Z,106.00
2018-09-13T05:02:00.132Z,116.00
2018-09-13T05:03:00.615Z,129.00
2018-09-13T05:04:00.713Z,144.00
2018-09-13T05:05:00.097Z,160.00
2018-09-13T05:06:00.379Z,178.00
2018-09-13T05:07:00.730Z,197.00
2018-09-13T05:08:00.107Z,216.00
2018-09-13T05:09:00.260Z,236.00
2018-09-13T05:10:00.476Z,252.00
2018-09-13T05:11:00.800Z,264.00
2018-09-13T05:12:00.110Z,273.00
2018-09-13T05:13:00.388Z,279.00
2018-09-13T05:14:00.589Z,289.00
2018-09-13T05:14:59.784Z,302.00
2018-09-13T05:16:00.028Z,320.00
2018-09-13T05:17:00.466Z,338.00
2018-09-13T05:18:00.514Z,355.00
2018-09-13T05:19:00.884Z,369.00
2018-09-13T05:20:00.376Z,381.00
2018-09-13T05:21:00.570Z,392.00
2018-09-13T05:21:59.986Z,402.00
2018-09-13T05:23:00.181Z,413.00
2018-09-13T05:24:00.296Z,429.00
2018-09-13T05:25:00.394Z,453.00
2018-09-13T05:26:00.674Z,483.00
2018-09-13T05:27:20.883Z,516.00
2018-09-13T05:28:21.243Z,532.00
2018-09-13T05:29:21.584Z,548.00
2018-09-13T05:30:20.835Z,566.00
2018-09-13T05:31:21.038Z,592.00
2018-09-13T05:32:21.420Z,623.00
2018-09-13T05:33:21.873Z,661.00
2018-09-13T05:34:22.250Z,703.00
2018-09-13T05:35:21.720Z,748.00
2018-09-13T05:36:33.319Z,788.00
2018-09-13T05:37:21.696Z,823.00
2018-09-13T05:38:20.844Z,866.00
2018-09-13T05:39:20.854Z,929.00
2018-09-13T05:40:21.130Z,996.00
2018-09-13T05:41:42.441Z,1083.00
2018-09-13T05:42:42.452Z,1204.00
2018-09-13T05:43:42.623Z,1355.00
2018-09-13T05:45:03.407Z,1513.00
2018-09-13T05:46:03.570Z,1605.00
2018-09-13T05:47:03.882Z,1704.00
2018-09-13T05:48:04.537Z,1844.00
2018-09-13T05:49:04.043Z,1986.00
2018-09-13T05:50:04.561Z,2125.00
2018-09-13T05:51:25.109Z,2239.00
2018-09-13T05:52:25.362Z,2312.00
2018-09-13T05:53:46.320Z,2334.00
2018-09-13T05:54:46.561Z,2450.00
2018-09-13T05:56:28.893Z,2723.00
2018-09-13T05:57:29.285Z,2890.00
2018-09-13T05:58:29.774Z,3050.00
2018-09-13T05:59:28.890Z,3175.00
2018-09-13T06:00:29.034Z,3253.00
2018-09-13T06:01:29.455Z,3290.00
2018-09-13T06:02:29.160Z,3329.00
2018-09-13T06:03:29.497Z,3391.00
2018-09-13T06:04:29.117Z,3481.00
2018-09-13T06:05:29.292Z,3589.00
2018-09-13T06:06:29.610Z,3708.00
2018-09-13T06:07:28.985Z,3842.00
2018-09-13T06:08:29.338Z,3937.00
2018-09-13T06:09:29.700Z,3867.00
2018-09-13T06:10:29.168Z,3693.00
2018-09-13T06:11:29.473Z,3623.00
2018-09-13T06:12:29.760Z,3654.00
2018-09-13T06:13:29.642Z,3754.00
2018-09-13T06:14:28.947Z,3879.00
2018-09-13T06:15:29.600Z,4051.00
2018-09-13T06:16:28.834Z,4187.00
2018-09-13T06:17:49.942Z,4334.00
2018-09-13T06:18:50.394Z,4418.00
2018-09-13T06:20:12.668Z,4487.00
2018-09-13T06:21:12.185Z,4601.00
2018-09-13T06:22:12.812Z,4860.00
2018-09-13T06:23:12.211Z,5143.00
2018-09-13T06:24:36.215Z,5359.00
2018-09-13T06:25:57.504Z,5333.00
2018-09-13T06:26:57.833Z,5236.00
2018-09-13T06:27:58.664Z,5104.00
2018-09-13T06:28:58.091Z,4956.00
2018-09-13T06:29:58.457Z,4919.00
2018-09-13T06:30:57.968Z,5039.00
2018-09-13T06:32:19.450Z,5423.00
2018-09-13T06:33:19.932Z,5850.00
2018-09-13T06:34:20.266Z,6365.00
2018-09-13T06:35:19.488Z,6921.00
2018-09-13T06:36:19.736Z,7306.00
2018-09-13T06:37:20.391Z,7311.00
2018-09-13T06:38:40.965Z,6737.00
2018-09-13T06:39:41.334Z,6277.00
2018-09-13T06:41:03.029Z,5939.00
2018-09-13T06:42:03.498Z,5946.00
2018-09-13T06:43:03.881Z,6221.00
2018-09-13T06:44:03.679Z,6695.00
2018-09-13T06:45:02.972Z,7426.00
2018-09-13T06:46:03.241Z,8478.00
2018-09-13T06:47:03.692Z,9731.00
2018-09-13T06:48:03.130Z,10733.00
2018-09-13T06:49:03.632Z,11213.00
2018-09-13T06:50:02.948Z,11271.00
2018-09-13T06:51:03.276Z,11003.00
2018-09-13T06:52:24.559Z,10772.00
2018-09-13T06:53:24.928Z,10937.00
2018-09-13T06:54:25.069Z,11301.00
2018-09-13T06:55:25.317Z,11898.00
2018-09-13T06:56:25.363Z,12495.00
2018-09-13T06:57:24.829Z,12947.00
2018-09-13T06:58:24.902Z,13341.00
2018-09-13T06:59:25.105Z,13764.00
2018-09-13T07:00:25.337Z,14403.00
2018-09-13T07:01:24.778Z,14948.00
2018-09-13T07:02:25.191Z,15488.00
2018-09-13T07:03:25.343Z,15972.00
2018-09-13T07:04:24.890Z,16288.00
2018-09-13T07:05:25.261Z,16123.00
2018-09-13T07:06:24.558Z,15442.00
2018-09-13T07:07:24.905Z,14611.00
2018-09-13T07:08:25.282Z,14022.00
2018-09-13T07:09:24.729Z,13614.00
2018-09-13T07:10:25.104Z,13394.00
2018-09-13T07:11:46.526Z,13246.00
2018-09-13T07:12:47.462Z,13326.00
2018-09-13T07:13:46.696Z,13884.00
2018-09-13T07:14:46.875Z,14904.00
2018-09-13T07:15:47.457Z,16027.00
2018-09-13T07:16:46.966Z,16746.00
2018-09-13T07:18:08.416Z,17096.00
2018-09-13T07:19:08.670Z,16408.00
2018-09-13T07:20:09.059Z,15968.00
2018-09-13T07:21:08.383Z,15721.00
2018-09-13T07:22:08.425Z,16246.00
2018-09-13T07:23:09.011Z,19568.00
2018-09-13T07:24:10.533Z,18880.00
2018-09-13T07:25:08.920Z,17872.00
2018-09-13T07:26:09.194Z,19296.00
2018-09-13T07:27:08.853Z,19488.00
2018-09-13T07:28:30.312Z,20120.00
2018-09-13T07:29:30.484Z,22368.00
2018-09-13T07:30:52.224Z,21840.00
2018-09-13T07:31:52.584Z,22376.00
2018-09-13T07:33:37.445Z,23344.00
2018-09-13T07:34:37.940Z,26232.00
2018-09-13T07:35:38.024Z,27136.00
2018-09-13T07:36:37.236Z,27512.00
2018-09-13T07:37:37.927Z,30312.00
2018-09-13T07:38:38.136Z,32648.00
2018-09-13T07:39:58.596Z,33312.00
2018-09-13T07:40:59.003Z,31064.00
2018-09-13T07:41:59.218Z,24944.00
2018-09-13T07:42:59.522Z,23920.00
2018-09-13T07:43:59.933Z,25152.00
2018-09-13T07:44:59.364Z,29024.00
2018-09-13T07:45:58.692Z,27256.00
2018-09-13T07:46:59.028Z,22368.00
2018-09-13T07:47:58.564Z,21168.00
2018-09-13T07:48:59.061Z,22440.00
2018-09-13T07:49:59.447Z,23544.00
2018-09-13T07:50:59.140Z,23856.00
2018-09-13T07:51:58.527Z,24856.00
2018-09-13T07:52:58.754Z,26024.00
2018-09-13T07:53:59.047Z,26960.00
2018-09-13T07:54:59.182Z,26832.00
2018-09-13T07:55:59.376Z,25784.00
2018-09-13T07:56:58.747Z,24832.00
2018-09-13T07:57:59.009Z,23384.00
2018-09-13T07:58:59.417Z,21776.00
2018-09-13T07:59:59.084Z,20888.00
2018-09-13T08:00:59.591Z,19992.00
2018-09-13T08:01:58.873Z,19864.00
2018-09-13T08:02:59.299Z,20880.00
2018-09-13T08:03:58.841Z,21376.00
2018-09-13T08:04:59.171Z,21584.00
2018-09-13T08:05:58.502Z,21648.00
2018-09-13T08:06:58.788Z,21776.00
2018-09-13T08:07:59.080Z,21648.00
2018-09-13T08:08:58.606Z,21936.00
2018-09-13T08:09:58.980Z,21328.00
2018-09-13T08:10:58.177Z,20320.00
2018-09-13T08:12:19.527Z,19280.00
2018-09-13T08:13:19.725Z,19440.00
2018-09-13T08:14:41.052Z,21400.00
2018-09-13T08:16:02.520Z,24904.00
2018-09-13T08:17:02.736Z,27024.00
2018-09-13T08:18:03.236Z,29120.00
2018-09-13T08:19:02.512Z,31464.00
2018-09-13T08:20:03.065Z,30656.00
2018-09-13T08:21:03.234Z,29696.00
2018-09-13T08:22:23.585Z,28576.00
2018-09-13T08:23:23.876Z,28832.00
2018-09-13T08:24:24.185Z,29296.00
2018-09-13T08:25:24.445Z,29328.00
2018-09-13T08:26:23.795Z,29512.00
2018-09-13T08:28:06.184Z,31216.00
2018-09-13T08:29:06.688Z,27096.00
2018-09-13T08:30:06.921Z,25584.00
2018-09-13T08:31:27.613Z,24528.00
2018-09-13T08:32:49.058Z,24120.00
2018-09-13T08:33:49.509Z,24040.00
2018-09-13T08:34:49.873Z,23464.00
2018-09-13T08:35:49.276Z,22544.00
2018-09-13T08:36:49.586Z,22656.00
2018-09-13T08:37:50.253Z,22712.00
2018-09-13T08:39:32.367Z,22136.00
2018-09-13T08:40:32.656Z,21880.00
2018-09-13T08:41:53.804Z,21856.00
2018-09-13T08:42:54.195Z,21712.00
2018-09-13T08:43:54.498Z,20656.00
2018-09-13T08:44:54.727Z,19864.00
2018-09-13T08:45:54.301Z,19408.00
2018-09-13T08:46:54.665Z,20472.00
2018-09-13T08:47:53.869Z,22560.00
2018-09-13T08:48:54.180Z,24296.00
2018-09-13T08:49:54.501Z,25904.00
2018-09-13T08:50:54.843Z,26096.00
2018-09-13T08:51:54.316Z,24352.00
2018-09-13T08:52:54.892Z,22568.00
2018-09-13T08:53:54.165Z,21344.00
2018-09-13T08:54:54.404Z,19824.00
2018-09-13T08:55:54.475Z,19256.00
2018-09-13T08:56:54.815Z,20128.00
2018-09-13T08:57:54.111Z,22264.00
2018-09-13T08:58:54.458Z,24624.00
2018-09-13T08:59:54.755Z,26240.00
2018-09-13T09:00:53.900Z,26952.00
2018-09-13T09:01:54.126Z,27488.00
2018-09-13T09:02:54.180Z,28048.00
2018-09-13T09:03:54.293Z,28360.00
2018-09-13T09:04:54.664Z,27992.00
2018-09-13T09:06:14.753Z,27720.00
2018-09-13T09:07:14.989Z,27648.00
2018-09-13T09:08:15.505Z,27544.00
2018-09-13T09:09:58.835Z,27848.00
2018-09-13T09:10:59.154Z,28576.00
2018-09-13T09:11:59.690Z,29312.00
2018-09-13T09:12:59.258Z,30040.00
2018-09-13T09:13:59.672Z,30552.00
2018-09-13T09:15:43.446Z,30656.00
2018-09-13T09:16:42.849Z,30792.00
2018-09-13T09:17:43.019Z,30816.00
2018-09-13T09:18:42.445Z,31128.00
2018-09-13T09:19:42.896Z,31816.00
2018-09-13T09:20:42.248Z,32264.00
2018-09-13T09:21:42.700Z,31592.00
2018-09-13T09:22:43.006Z,30680.00
2018-09-13T09:24:03.041Z,28288.00
2018-09-13T09:25:03.268Z,27328.00
2018-09-13T09:26:03.851Z,26776.00
2018-09-13T09:27:04.059Z,25792.00
2018-09-13T09:28:03.853Z,23712.00
2018-09-13T09:29:04.297Z,21464.00
2018-09-13T09:30:03.945Z,20160.00
2018-09-13T09:31:04.245Z,18800.00
2018-09-13T09:32:03.250Z,17496.00
2018-09-13T09:33:03.636Z,16478.00
2018-09-13T09:34:03.881Z,15992.00
2018-09-13T09:35:04.227Z,16297.00
2018-09-13T09:36:03.580Z,16161.00
2018-09-13T09:37:04.105Z,16115.00
2018-09-13T09:38:03.278Z,16112.00
2018-09-13T09:39:03.634Z,15959.00
2018-09-13T09:40:04.042Z,16213.00
2018-09-13T09:41:03.312Z,17712.00
2018-09-13T09:42:03.648Z,19296.00
2018-09-13T09:43:03.805Z,20840.00
2018-09-13T09:44:04.016Z,21896.00
2018-09-13T09:45:03.418Z,22208.00
2018-09-13T09:46:03.767Z,21856.00
2018-09-13T09:47:04.040Z,21248.00
2018-09-13T09:48:03.426Z,21064.00
2018-09-13T09:49:03.877Z,21392.00
2018-09-13T09:50:03.255Z,22120.00
2018-09-13T09:51:03.664Z,22728.00
2018-09-13T09:52:04.190Z,23632.00
2018-09-13T09:53:03.489Z,25736.00
2018-09-13T09:54:03.722Z,29008.00
2018-09-13T09:55:03.987Z,31376.00
2018-09-13T09:56:03.173Z,31512.00
2018-09-13T09:57:03.351Z,28368.00
2018-09-13T09:58:03.788Z,26016.00
2018-09-13T09:59:04.171Z,24528.00
2018-09-13T10:00:03.539Z,23368.00
2018-09-13T10:01:04.018Z,22488.00
2018-09-13T10:02:03.274Z,21808.00
2018-09-13T10:03:03.801Z,20768.00
2018-09-13T10:04:03.364Z,20576.00
2018-09-13T10:05:03.497Z,20528.00
2018-09-13T10:06:04.000Z,20368.00
2018-09-13T10:07:24.420Z,20104.00
2018-09-13T10:08:24.821Z,19760.00
2018-09-13T10:09:25.146Z,19552.00
2018-09-13T10:10:46.052Z,19264.00
2018-09-13T10:11:46.469Z,19584.00
2018-09-13T10:13:07.087Z,20568.00
2018-09-13T10:14:07.545Z,20600.00
2018-09-13T10:15:08.098Z,19904.00
2018-09-13T10:16:07.575Z,19176.00
2018-09-13T10:17:07.993Z,19936.00
2018-09-13T10:18:07.606Z,21912.00
2018-09-13T10:19:29.042Z,25656.00
2018-09-13T10:20:50.814Z,28288.00
2018-09-13T10:21:51.119Z,29488.00
2018-09-13T10:22:51.626Z,24848.00
2018-09-13T10:23:51.045Z,22720.00
2018-09-13T10:24:51.386Z,23304.00
2018-09-13T10:25:52.093Z,24120.00
2018-09-13T10:26:51.089Z,22720.00
2018-09-13T10:27:51.558Z,22072.00
2018-09-13T10:28:51.476Z,20416.00
2018-09-13T10:29:51.077Z,20792.00
2018-09-13T10:31:12.702Z,22608.00
2018-09-13T10:32:13.118Z,23584.00
2018-09-13T10:33:13.285Z,24200.00
2018-09-13T10:34:12.920Z,23944.00
2018-09-13T10:35:13.270Z,23072.00
2018-09-13T10:36:34.409Z,23280.00
2018-09-13T10:37:34.741Z,24224.00
2018-09-13T10:38:35.025Z,26128.00
2018-09-13T10:39:35.260Z,28024.00
2018-09-13T10:40:34.716Z,29032.00
2018-09-13T10:41:56.153Z,30976.00
2018-09-13T10:42:56.473Z,30712.00
2018-09-13T10:44:18.385Z,30896.00
2018-09-13T10:45:18.869Z,31064.00
2018-09-13T10:46:18.374Z,31912.00
2018-09-13T10:47:18.799Z,56760.00
2018-09-13T10:48:18.274Z,65535.00
2018-09-13T10:49:18.747Z,65535.00
2018-09-13T10:50:18.313Z,44704.00
2018-09-13T10:51:18.610Z,65535.00
2018-09-13T10:52:18.948Z,65535.00
2018-09-13T10:53:18.467Z,42056.00
2018-09-13T10:54:18.907Z,65535.00
2018-09-13T10:55:18.459Z,65535.00
2018-09-13T10:56:18.936Z,65535.00
2018-09-13T10:57:18.247Z,20712.00
2018-09-13T10:58:18.721Z,15605.00
2018-09-13T10:59:39.300Z,12516.00
2018-09-13T11:00:39.648Z,11762.00
2018-09-13T11:01:40.104Z,11475.00
2018-09-13T11:02:39.374Z,11617.00
2018-09-13T11:03:39.543Z,11844.00
2018-09-13T11:04:40.026Z,12183.00
2018-09-13T11:05:39.140Z,12688.00
2018-09-13T11:06:39.637Z,13644.00
2018-09-13T11:07:40.131Z,13855.00
2018-09-13T11:08:39.453Z,13809.00
2018-09-13T11:09:39.820Z,14349.00
2018-09-13T11:10:40.364Z,15011.00
2018-09-13T11:12:00.873Z,15260.00
2018-09-13T11:13:22.314Z,16306.00
2018-09-13T11:14:22.488Z,17671.00
2018-09-13T11:15:23.328Z,19248.00
2018-09-13T11:16:24.008Z,21000.00
2018-09-13T11:17:23.149Z,23464.00
2018-09-13T11:18:44.228Z,29272.00
2018-09-13T11:19:44.749Z,65535.00
2018-09-13T11:20:45.877Z,65535.00
2018-09-13T11:21:45.337Z,65535.00
2018-09-13T11:23:05.947Z,65535.00
2018-09-13T11:24:06.427Z,65535.00
2018-09-13T11:25:06.803Z,65535.00
2018-09-13T11:26:06.083Z,65535.00
2018-09-13T11:27:06.665Z,65535.00
2018-09-13T11:28:27.922Z,65535.00
2018-09-13T11:29:28.253Z,52192.00
2018-09-13T11:30:28.643Z,53160.00
2018-09-13T11:31:52.028Z,38816.00
2018-09-13T11:32:52.415Z,40472.00
2018-09-13T11:33:52.799Z,29408.00
2018-09-13T11:34:52.206Z,27736.00
2018-09-13T11:35:52.508Z,25488.00
2018-09-13T11:36:52.814Z,24680.00
2018-09-13T11:37:52.917Z,25232.00
2018-09-13T11:38:52.173Z,35512.00
2018-09-13T11:39:52.957Z,29088.00
2018-09-13T11:40:52.715Z,26184.00
2018-09-13T11:42:13.877Z,26232.00
2018-09-13T11:43:14.250Z,27440.00
2018-09-13T11:44:35.977Z,29200.00
2018-09-13T11:45:57.721Z,28832.00
2018-09-13T11:46:58.179Z,28568.00
2018-09-13T11:49:02.163Z,28816.00
2018-09-13T11:50:03.203Z,41320.00
2018-09-13T11:51:02.408Z,60624.00
2018-09-13T11:52:02.781Z,65535.00
2018-09-13T11:53:02.178Z,65535.00
2018-09-13T11:54:03.167Z,65535.00
2018-09-13T11:55:02.693Z,65535.00
2018-09-13T11:56:02.956Z,64184.00
2018-09-13T11:57:02.638Z,65535.00
2018-09-13T11:58:02.098Z,65535.00
2018-09-13T11:59:02.760Z,65535.00
2018-09-13T12:00:02.144Z,65535.00
2018-09-13T12:01:02.535Z,65535.00
2018-09-13T12:02:24.240Z,65535.00
2018-09-13T12:03:45.974Z,65535.00
2018-09-13T12:05:07.394Z,65535.00
2018-09-13T12:06:07.769Z,65535.00
2018-09-13T12:07:29.349Z,65535.00
2018-09-13T12:08:31.039Z,62136.00
2018-09-13T12:09:29.433Z,59616.00
2018-09-13T12:10:29.715Z,62688.00
2018-09-13T12:11:30.092Z,65535.00
2018-09-13T12:12:30.477Z,65535.00
2018-09-13T12:13:29.860Z,65535.00
2018-09-13T12:14:30.079Z,65535.00
2018-09-13T12:15:29.288Z,65535.00
2018-09-13T12:16:29.579Z,65535.00
2018-09-13T12:17:29.937Z,65535.00
2018-09-13T12:18:29.403Z,65535.00
2018-09-13T12:19:29.800Z,62200.00
2018-09-13T12:20:51.390Z,65535.00
2018-09-13T12:21:51.902Z,48344.00
2018-09-13T12:22:52.136Z,23064.00
2018-09-13T12:23:51.639Z,21064.00
2018-09-13T12:25:34.574Z,18360.00
2018-09-13T12:26:35.125Z,16976.00
2018-09-13T12:27:34.801Z,15627.00
2018-09-13T12:28:36.434Z,14523.00
2018-09-13T12:29:55.758Z,13531.00
2018-09-13T12:30:56.825Z,12343.00
2018-09-13T12:31:56.341Z,10995.00
2018-09-13T12:32:56.464Z,9887.00
2018-09-13T12:33:55.766Z,8883.00
2018-09-13T12:34:56.210Z,8124.00
2018-09-13T12:35:55.590Z,7476.00
2018-09-13T12:37:17.024Z,6833.00
2018-09-13T12:38:17.383Z,6501.00
2018-09-13T12:39:18.033Z,6176.00
2018-09-13T12:40:17.445Z,5906.00
2018-09-13T12:41:17.780Z,5729.00
2018-09-13T12:42:17.872Z,5632.00
2018-09-13T12:43:17.215Z,5551.00
2018-09-13T12:44:17.548Z,5385.00
2018-09-13T12:45:17.903Z,5233.00
2018-09-13T12:46:17.223Z,5110.00
2018-09-13T12:47:17.505Z,5026.00
2018-09-13T12:48:17.896Z,4979.00
2018-09-13T12:49:39.705Z,5046.00
2018-09-13T12:50:39.883Z,5188.00
2018-09-13T12:51:40.732Z,5402.00
2018-09-13T12:52:40.158Z,5686.00
2018-09-13T12:53:40.718Z,6031.00
2018-09-13T12:54:40.223Z,6391.00
2018-09-13T12:55:40.782Z,6762.00
2018-09-13T12:56:41.726Z,7188.00
2018-09-13T12:57:40.385Z,7703.00
2018-09-13T12:58:40.200Z,8201.00
2018-09-13T12:59:41.426Z,8650.00
2018-09-13T13:00:40.809Z,9233.00
2018-09-13T13:01:40.382Z,9998.00
2018-09-13T13:02:40.070Z,10754.00